VOZ332 YBBN-YMML
Flight info
| Callsign | VOZ332 |
|---|---|
| Flight time | 1h 54m |
| Altitude | 34000 |
| Route | SANEG Q35 DORSU H119 ARBEY |
| Aircraft | B38M/M-SADE3GHIJ4J7M3RWZ/LB1D1 |
Departure
| Time | 2026-05-05 04:11 |
|---|---|
| Airport | Brisbane International Airport (YBBN) |
Arrival
| Time | 2026-05-05 06:06 |
|---|---|
| Airport | Melbourne Airport (YMML) |
| Time | Latitude | Longitude | Altitude | Speed | Heading |
|---|---|---|---|---|---|
| 2026-05-05 03:39 | -27.38718 | 153.11949 | 20 ft | 0 kts | 336° |
| 2026-05-05 03:59 | -27.38718 | 153.11950 | 20 ft | 1 kts | 336° |
| 2026-05-05 03:59 | -27.38738 | 153.11961 | 23 ft | 4 kts | 326° |
| 2026-05-05 03:59 | -27.38757 | 153.11981 | 22 ft | 4 kts | 301° |
| 2026-05-05 03:59 | -27.38763 | 153.12006 | 21 ft | 2 kts | 256° |
| 2026-05-05 04:00 | -27.38759 | 153.12030 | 22 ft | 4 kts | 270° |
| 2026-05-05 04:00 | -27.38764 | 153.12058 | 20 ft | 4 kts | 296° |
| 2026-05-05 04:00 | -27.38780 | 153.12082 | 24 ft | 4 kts | 317° |
| 2026-05-05 04:00 | -27.38799 | 153.12101 | 22 ft | 2 kts | 321° |
| 2026-05-05 04:01 | -27.38801 | 153.12102 | 22 ft | 0 kts | 321° |
| 2026-05-05 04:05 | -27.38800 | 153.12101 | 20 ft | 1 kts | 321° |
| 2026-05-05 04:05 | -27.38790 | 153.12097 | 22 ft | 2 kts | 347° |
| 2026-05-05 04:05 | -27.38766 | 153.12145 | 21 ft | 14 kts | 92° |
| 2026-05-05 04:05 | -27.38790 | 153.12273 | 20 ft | 18 kts | 83° |
| 2026-05-05 04:06 | -27.38695 | 153.12365 | 20 ft | 20 kts | 27° |
| 2026-05-05 04:06 | -27.38567 | 153.12438 | 21 ft | 21 kts | 27° |
| 2026-05-05 04:06 | -27.38428 | 153.12514 | 22 ft | 23 kts | 27° |
| 2026-05-05 04:06 | -27.38281 | 153.12600 | 21 ft | 25 kts | 27° |
| 2026-05-05 04:07 | -27.38124 | 153.12693 | 21 ft | 26 kts | 27° |
| 2026-05-05 04:07 | -27.37966 | 153.12764 | 20 ft | 22 kts | 349° |
| 2026-05-05 04:07 | -27.37887 | 153.12635 | 21 ft | 21 kts | 297° |
| 2026-05-05 04:07 | -27.37816 | 153.12479 | 20 ft | 24 kts | 297° |
| 2026-05-05 04:08 | -27.37737 | 153.12309 | 20 ft | 26 kts | 297° |
| 2026-05-05 04:08 | -27.37655 | 153.12123 | 20 ft | 27 kts | 296° |
| 2026-05-05 04:08 | -27.37568 | 153.11928 | 20 ft | 28 kts | 298° |
| 2026-05-05 04:08 | -27.37474 | 153.11725 | 20 ft | 30 kts | 296° |
| 2026-05-05 04:09 | -27.37413 | 153.11535 | 20 ft | 22 kts | 248° |
| 2026-05-05 04:09 | -27.37526 | 153.11430 | 20 ft | 21 kts | 257° |
| 2026-05-05 04:09 | -27.37480 | 153.11307 | 21 ft | 1 kts | 298° |
| 2026-05-05 04:10 | -27.37459 | 153.11259 | 21 ft | 15 kts | 297° |
| 2026-05-05 04:10 | -27.37382 | 153.11212 | 20 ft | 12 kts | 21° |
| 2026-05-05 04:10 | -27.37371 | 153.11218 | 20 ft | 0 kts | 27° |
| 2026-05-05 04:11 | -27.37328 | 153.11243 | 21 ft | 34 kts | 27° |
| 2026-05-05 04:11 | -27.36870 | 153.11506 | 22 ft | 111 kts | 27° |
| 2026-05-05 04:11 | -27.36005 | 153.11997 | 133 ft | 159 kts | 27° |
| 2026-05-05 04:11 | -27.35000 | 153.12546 | 932 ft | 157 kts | 26° |
| 2026-05-05 04:12 | -27.33847 | 153.12804 | 1430 ft | 179 kts | 356° |
| 2026-05-05 04:12 | -27.32649 | 153.12609 | 2213 ft | 184 kts | 351° |
| 2026-05-05 04:12 | -27.31311 | 153.12366 | 2755 ft | 205 kts | 351° |
| 2026-05-05 04:12 | -27.29827 | 153.12103 | 3315 ft | 227 kts | 351° |
| 2026-05-05 04:13 | -27.28255 | 153.11531 | 3717 ft | 255 kts | 324° |
| 2026-05-05 04:13 | -27.27197 | 153.10004 | 4818 ft | 247 kts | 295° |
| 2026-05-05 04:13 | -27.26750 | 153.08092 | 5522 ft | 263 kts | 268° |
| 2026-05-05 04:13 | -27.27256 | 153.06085 | 6259 ft | 274 kts | 236° |
| 2026-05-05 04:14 | -27.28605 | 153.04605 | 7277 ft | 275 kts | 210° |
| 2026-05-05 04:14 | -27.30326 | 153.03623 | 8207 ft | 280 kts | 207° |
| 2026-05-05 04:14 | -27.32061 | 153.02599 | 9191 ft | 283 kts | 207° |
| 2026-05-05 04:14 | -27.33815 | 153.01550 | 10131 ft | 288 kts | 208° |
| 2026-05-05 04:15 | -27.35630 | 153.00447 | 10718 ft | 305 kts | 209° |
| 2026-05-05 04:15 | -27.37536 | 152.99262 | 11242 ft | 321 kts | 210° |
| 2026-05-05 04:15 | -27.39524 | 152.98027 | 11904 ft | 331 kts | 210° |
| 2026-05-05 04:15 | -27.41551 | 152.96782 | 12778 ft | 334 kts | 210° |
| 2026-05-05 04:16 | -27.43612 | 152.95522 | 13596 ft | 340 kts | 210° |
| 2026-05-05 04:16 | -27.45703 | 152.94246 | 14371 ft | 344 kts | 211° |
| 2026-05-05 04:16 | -27.47823 | 152.92952 | 15139 ft | 348 kts | 212° |
| 2026-05-05 04:16 | -27.49961 | 152.91651 | 15887 ft | 352 kts | 212° |
| 2026-05-05 04:17 | -27.52137 | 152.90323 | 16600 ft | 356 kts | 213° |
| 2026-05-05 04:17 | -27.54304 | 152.89002 | 17318 ft | 360 kts | 213° |
| 2026-05-05 04:17 | -27.56518 | 152.87651 | 18040 ft | 364 kts | 213° |
| 2026-05-05 04:17 | -27.58789 | 152.86266 | 18680 ft | 368 kts | 214° |
| 2026-05-05 04:18 | -27.61015 | 152.84903 | 19283 ft | 371 kts | 214° |
| 2026-05-05 04:18 | -27.63291 | 152.83513 | 19914 ft | 373 kts | 214° |
| 2026-05-05 04:18 | -27.65579 | 152.82114 | 20539 ft | 376 kts | 215° |
| 2026-05-05 04:18 | -27.67886 | 152.80703 | 21142 ft | 379 kts | 215° |
| 2026-05-05 04:19 | -27.70218 | 152.79277 | 21735 ft | 382 kts | 216° |
| 2026-05-05 04:19 | -27.72555 | 152.77844 | 22326 ft | 384 kts | 216° |
| 2026-05-05 04:19 | -27.74919 | 152.76397 | 22938 ft | 387 kts | 216° |
| 2026-05-05 04:19 | -27.77294 | 152.74941 | 23511 ft | 390 kts | 216° |
| 2026-05-05 04:20 | -27.79686 | 152.73474 | 24000 ft | 393 kts | 217° |
| 2026-05-05 04:20 | -27.82100 | 152.71994 | 24479 ft | 395 kts | 217° |
| 2026-05-05 04:20 | -27.84523 | 152.70509 | 24945 ft | 398 kts | 217° |
| 2026-05-05 04:20 | -27.86964 | 152.69011 | 25416 ft | 400 kts | 217° |
| 2026-05-05 04:21 | -27.89321 | 152.67564 | 25868 ft | 403 kts | 217° |
| 2026-05-05 04:21 | -27.91791 | 152.66047 | 26320 ft | 406 kts | 218° |
| 2026-05-05 04:21 | -27.94278 | 152.64519 | 26769 ft | 408 kts | 218° |
| 2026-05-05 04:21 | -27.96781 | 152.62981 | 27218 ft | 411 kts | 218° |
| 2026-05-05 04:22 | -27.99299 | 152.61432 | 27656 ft | 413 kts | 218° |
| 2026-05-05 04:22 | -28.01803 | 152.59890 | 28077 ft | 416 kts | 218° |
| 2026-05-05 04:22 | -28.04361 | 152.58316 | 28464 ft | 419 kts | 218° |
| 2026-05-05 04:22 | -28.06934 | 152.56732 | 28844 ft | 422 kts | 218° |
| 2026-05-05 04:23 | -28.09516 | 152.55140 | 29287 ft | 424 kts | 218° |
| 2026-05-05 04:23 | -28.12149 | 152.53517 | 29747 ft | 426 kts | 218° |
| 2026-05-05 04:23 | -28.14731 | 152.51925 | 30137 ft | 429 kts | 218° |
| 2026-05-05 04:23 | -28.17355 | 152.50304 | 30476 ft | 431 kts | 218° |
| 2026-05-05 04:24 | -28.19992 | 152.48676 | 30845 ft | 432 kts | 218° |
| 2026-05-05 04:24 | -28.22641 | 152.47039 | 31203 ft | 433 kts | 219° |
| 2026-05-05 04:24 | -28.25293 | 152.45401 | 31566 ft | 434 kts | 219° |
| 2026-05-05 04:25 | -28.30624 | 152.42101 | 32186 ft | 439 kts | 219° |
| 2026-05-05 04:25 | -28.33312 | 152.40438 | 32541 ft | 439 kts | 219° |
| 2026-05-05 04:25 | -28.35991 | 152.38783 | 33031 ft | 438 kts | 219° |
| 2026-05-05 04:25 | -28.38661 | 152.37134 | 33535 ft | 435 kts | 220° |
| 2026-05-05 04:26 | -28.41315 | 152.35495 | 33969 ft | 434 kts | 220° |
| 2026-05-05 04:26 | -28.43966 | 152.33852 | 34080 ft | 433 kts | 220° |
| 2026-05-05 04:26 | -28.46595 | 152.32225 | 34070 ft | 429 kts | 220° |
| 2026-05-05 04:27 | -28.51828 | 152.28977 | 34066 ft | 428 kts | 220° |
| 2026-05-05 04:27 | -28.57055 | 152.25727 | 34071 ft | 428 kts | 220° |
| 2026-05-05 04:28 | -28.62277 | 152.22476 | 34066 ft | 427 kts | 220° |
| 2026-05-05 04:28 | -28.67458 | 152.19247 | 34073 ft | 427 kts | 221° |
| 2026-05-05 04:29 | -28.72699 | 152.15971 | 34061 ft | 435 kts | 220° |
| 2026-05-05 04:29 | -28.78090 | 152.12591 | 34076 ft | 445 kts | 220° |
| 2026-05-05 04:30 | -28.82612 | 152.09766 | 34081 ft | 446 kts | 220° |
| 2026-05-05 04:30 | -28.88940 | 152.05806 | 34085 ft | 446 kts | 220° |
| 2026-05-05 04:31 | -28.94366 | 152.02406 | 34085 ft | 445 kts | 220° |
| 2026-05-05 04:31 | -28.98919 | 151.99550 | 34088 ft | 445 kts | 220° |
| 2026-05-05 04:32 | -29.05224 | 151.95590 | 34100 ft | 445 kts | 220° |
| 2026-05-05 04:32 | -29.09732 | 151.92755 | 34095 ft | 444 kts | 220° |
| 2026-05-05 04:33 | -29.15152 | 151.89343 | 34102 ft | 444 kts | 220° |
| 2026-05-05 04:33 | -29.20572 | 151.85927 | 34105 ft | 444 kts | 220° |
| 2026-05-05 04:33 | -29.23184 | 151.84107 | 34106 ft | 433 kts | 227° |
| 2026-05-05 04:34 | -29.25620 | 151.82067 | 34102 ft | 434 kts | 227° |
| 2026-05-05 04:34 | -29.30560 | 151.78054 | 34105 ft | 435 kts | 226° |
| 2026-05-05 04:35 | -29.35521 | 151.74065 | 34104 ft | 436 kts | 226° |
| 2026-05-05 04:35 | -29.40447 | 151.70104 | 34104 ft | 435 kts | 226° |
| 2026-05-05 04:36 | -29.45409 | 151.66110 | 34107 ft | 436 kts | 226° |
| 2026-05-05 04:36 | -29.50372 | 151.62111 | 34100 ft | 436 kts | 226° |
| 2026-05-05 04:37 | -29.55329 | 151.58111 | 34113 ft | 436 kts | 226° |
| 2026-05-05 04:37 | -29.60294 | 151.54104 | 34082 ft | 436 kts | 227° |
| 2026-05-05 04:38 | -29.65239 | 151.50102 | 34100 ft | 435 kts | 226° |
| 2026-05-05 04:38 | -29.70190 | 151.46091 | 34095 ft | 435 kts | 226° |
| 2026-05-05 04:39 | -29.75128 | 151.42088 | 34100 ft | 434 kts | 226° |
| 2026-05-05 04:39 | -29.80067 | 151.38079 | 34101 ft | 434 kts | 226° |
| 2026-05-05 04:40 | -29.84963 | 151.34099 | 34108 ft | 433 kts | 226° |
| 2026-05-05 04:40 | -29.89880 | 151.30097 | 34097 ft | 432 kts | 226° |
| 2026-05-05 04:41 | -29.94789 | 151.26098 | 34100 ft | 432 kts | 226° |
| 2026-05-05 04:41 | -29.99695 | 151.22096 | 34098 ft | 431 kts | 226° |
| 2026-05-05 04:42 | -30.04584 | 151.18102 | 34095 ft | 431 kts | 227° |
| 2026-05-05 04:42 | -30.09479 | 151.14100 | 34101 ft | 431 kts | 226° |
| 2026-05-05 04:43 | -30.14365 | 151.10098 | 34097 ft | 430 kts | 226° |
| 2026-05-05 04:43 | -30.19243 | 151.06099 | 34095 ft | 430 kts | 227° |
| 2026-05-05 04:44 | -30.24122 | 151.02095 | 34104 ft | 430 kts | 226° |
| 2026-05-05 04:44 | -30.28987 | 150.98096 | 34088 ft | 429 kts | 227° |
| 2026-05-05 04:45 | -30.33862 | 150.94084 | 34107 ft | 430 kts | 227° |
| 2026-05-05 04:45 | -30.38711 | 150.90089 | 34105 ft | 429 kts | 227° |
| 2026-05-05 04:46 | -30.43581 | 150.86071 | 34114 ft | 430 kts | 227° |
| 2026-05-05 04:46 | -30.48449 | 150.82051 | 34115 ft | 430 kts | 227° |
| 2026-05-05 04:47 | -30.53318 | 150.78024 | 34117 ft | 430 kts | 227° |
| 2026-05-05 04:47 | -30.58189 | 150.73990 | 34118 ft | 430 kts | 227° |
| 2026-05-05 04:48 | -30.63060 | 150.69951 | 34131 ft | 431 kts | 227° |
| 2026-05-05 04:48 | -30.67657 | 150.66136 | 34127 ft | 430 kts | 227° |
| 2026-05-05 04:49 | -30.72618 | 150.62012 | 34133 ft | 431 kts | 227° |
| 2026-05-05 04:49 | -30.77489 | 150.57958 | 34126 ft | 431 kts | 227° |
| 2026-05-05 04:50 | -30.82368 | 150.53893 | 34128 ft | 431 kts | 227° |
| 2026-05-05 04:50 | -30.87238 | 150.49830 | 34125 ft | 431 kts | 227° |
| 2026-05-05 04:51 | -30.92114 | 150.45756 | 34126 ft | 431 kts | 227° |
| 2026-05-05 04:51 | -30.96994 | 150.41674 | 34128 ft | 432 kts | 227° |
| 2026-05-05 04:52 | -31.01843 | 150.37613 | 34128 ft | 432 kts | 227° |
| 2026-05-05 04:52 | -31.06721 | 150.33522 | 34124 ft | 432 kts | 228° |
| 2026-05-05 04:53 | -31.11596 | 150.29428 | 34129 ft | 432 kts | 228° |
| 2026-05-05 04:53 | -31.16469 | 150.25331 | 34124 ft | 431 kts | 228° |
| 2026-05-05 04:54 | -31.21344 | 150.21227 | 34121 ft | 432 kts | 228° |
| 2026-05-05 04:54 | -31.26218 | 150.17118 | 34129 ft | 432 kts | 228° |
| 2026-05-05 04:55 | -31.31093 | 150.13003 | 34130 ft | 432 kts | 228° |
| 2026-05-05 04:55 | -31.35967 | 150.08884 | 34122 ft | 432 kts | 228° |
| 2026-05-05 04:56 | -31.40843 | 150.04757 | 34125 ft | 432 kts | 228° |
| 2026-05-05 04:56 | -31.45686 | 150.00654 | 34128 ft | 433 kts | 228° |
| 2026-05-05 04:57 | -31.50571 | 149.96509 | 34133 ft | 434 kts | 228° |
| 2026-05-05 04:57 | -31.55459 | 149.92355 | 34131 ft | 434 kts | 228° |
| 2026-05-05 04:58 | -31.60354 | 149.88191 | 34133 ft | 435 kts | 228° |
| 2026-05-05 04:58 | -31.65251 | 149.84019 | 34137 ft | 435 kts | 228° |
| 2026-05-05 04:59 | -31.70150 | 149.79840 | 34138 ft | 436 kts | 228° |
| 2026-05-05 04:59 | -31.75060 | 149.75646 | 34129 ft | 436 kts | 228° |
| 2026-05-05 05:00 | -31.79973 | 149.71444 | 34143 ft | 438 kts | 228° |
| 2026-05-05 05:00 | -31.84867 | 149.67252 | 34141 ft | 437 kts | 228° |
| 2026-05-05 05:01 | -31.89786 | 149.63035 | 34145 ft | 438 kts | 228° |
| 2026-05-05 05:01 | -31.94704 | 149.58812 | 34137 ft | 437 kts | 229° |
| 2026-05-05 05:02 | -31.99610 | 149.54591 | 34145 ft | 437 kts | 229° |
| 2026-05-05 05:02 | -32.04530 | 149.50355 | 34133 ft | 437 kts | 229° |
| 2026-05-05 05:03 | -32.09438 | 149.46124 | 34142 ft | 437 kts | 229° |
| 2026-05-05 05:03 | -32.14349 | 149.41883 | 34133 ft | 437 kts | 229° |
| 2026-05-05 05:04 | -32.19231 | 149.37662 | 34141 ft | 437 kts | 229° |
| 2026-05-05 05:04 | -32.24146 | 149.33406 | 34148 ft | 438 kts | 229° |
| 2026-05-05 05:05 | -32.29067 | 149.29140 | 34136 ft | 439 kts | 229° |
| 2026-05-05 05:05 | -32.33993 | 149.24864 | 34134 ft | 440 kts | 229° |
| 2026-05-05 05:06 | -32.38929 | 149.20572 | 34140 ft | 441 kts | 229° |
| 2026-05-05 05:06 | -32.43879 | 149.16263 | 34139 ft | 441 kts | 229° |
| 2026-05-05 05:07 | -32.48824 | 149.11952 | 34151 ft | 442 kts | 229° |
| 2026-05-05 05:07 | -32.53786 | 149.07620 | 34145 ft | 443 kts | 228° |
| 2026-05-05 05:08 | -32.58717 | 149.03308 | 34155 ft | 444 kts | 228° |
| 2026-05-05 05:08 | -32.63696 | 148.98950 | 34151 ft | 444 kts | 228° |
| 2026-05-05 05:09 | -32.68667 | 148.94591 | 34147 ft | 445 kts | 228° |
| 2026-05-05 05:09 | -32.73654 | 148.90214 | 34158 ft | 446 kts | 227° |
| 2026-05-05 05:10 | -32.78649 | 148.85822 | 34153 ft | 447 kts | 227° |
| 2026-05-05 05:10 | -32.83653 | 148.81416 | 34164 ft | 448 kts | 227° |
| 2026-05-05 05:11 | -32.88666 | 148.76996 | 34157 ft | 449 kts | 227° |
| 2026-05-05 05:11 | -32.93694 | 148.72555 | 34168 ft | 450 kts | 227° |
| 2026-05-05 05:12 | -32.98691 | 148.68137 | 34163 ft | 450 kts | 226° |
| 2026-05-05 05:12 | -33.03731 | 148.63673 | 34175 ft | 451 kts | 226° |
| 2026-05-05 05:13 | -33.08769 | 148.59205 | 34176 ft | 452 kts | 226° |
| 2026-05-05 05:13 | -33.13818 | 148.54721 | 34182 ft | 452 kts | 226° |
| 2026-05-05 05:14 | -33.18871 | 148.50225 | 34183 ft | 453 kts | 226° |
| 2026-05-05 05:14 | -33.23926 | 148.45723 | 34186 ft | 453 kts | 226° |
| 2026-05-05 05:15 | -33.28982 | 148.41212 | 34191 ft | 454 kts | 226° |
| 2026-05-05 05:15 | -33.34042 | 148.36691 | 34195 ft | 454 kts | 226° |
| 2026-05-05 05:16 | -33.39100 | 148.32166 | 34194 ft | 454 kts | 226° |
| 2026-05-05 05:16 | -33.44116 | 148.27646 | 34192 ft | 451 kts | 229° |
| 2026-05-05 05:17 | -33.48839 | 148.22749 | 34200 ft | 449 kts | 230° |
| 2026-05-05 05:17 | -33.53596 | 148.17880 | 34196 ft | 450 kts | 229° |
| 2026-05-05 05:18 | -33.58355 | 148.13016 | 34199 ft | 450 kts | 230° |
| 2026-05-05 05:18 | -33.63116 | 148.08146 | 34203 ft | 450 kts | 229° |
| 2026-05-05 05:19 | -33.67067 | 148.04098 | 34204 ft | 450 kts | 230° |
| 2026-05-05 05:19 | -33.71827 | 147.99215 | 34200 ft | 450 kts | 229° |
| 2026-05-05 05:20 | -33.76584 | 147.94327 | 34204 ft | 450 kts | 229° |
| 2026-05-05 05:20 | -33.81338 | 147.89435 | 34200 ft | 450 kts | 229° |
| 2026-05-05 05:21 | -33.86091 | 147.84536 | 34204 ft | 450 kts | 229° |
| 2026-05-05 05:21 | -33.90847 | 147.79627 | 34205 ft | 450 kts | 229° |
| 2026-05-05 05:22 | -33.95601 | 147.74713 | 34202 ft | 450 kts | 229° |
| 2026-05-05 05:22 | -34.00354 | 147.69789 | 34208 ft | 450 kts | 229° |
| 2026-05-05 05:23 | -34.05106 | 147.64864 | 34206 ft | 451 kts | 229° |
| 2026-05-05 05:23 | -34.09865 | 147.59921 | 34204 ft | 451 kts | 225° |
| 2026-05-05 05:24 | -34.14626 | 147.54970 | 34205 ft | 451 kts | 225° |
| 2026-05-05 05:24 | -34.19347 | 147.50052 | 34205 ft | 451 kts | 225° |
| 2026-05-05 05:25 | -34.24091 | 147.45103 | 34204 ft | 450 kts | 225° |
| 2026-05-05 05:25 | -34.28829 | 147.40152 | 34205 ft | 450 kts | 225° |
| 2026-05-05 05:26 | -34.33560 | 147.35202 | 34208 ft | 450 kts | 225° |
| 2026-05-05 05:26 | -34.38286 | 147.30247 | 34205 ft | 449 kts | 225° |
| 2026-05-05 05:27 | -34.43003 | 147.25294 | 34206 ft | 449 kts | 225° |
| 2026-05-05 05:27 | -34.50075 | 147.17856 | 34211 ft | 448 kts | 225° |
| 2026-05-05 05:28 | -34.54779 | 147.12898 | 34214 ft | 448 kts | 225° |
| 2026-05-05 05:28 | -34.59485 | 147.07931 | 34215 ft | 448 kts | 225° |
| 2026-05-05 05:29 | -34.64147 | 147.03002 | 34212 ft | 447 kts | 225° |
| 2026-05-05 05:29 | -34.68838 | 146.98035 | 34208 ft | 447 kts | 225° |
| 2026-05-05 05:30 | -34.73523 | 146.93065 | 34211 ft | 447 kts | 225° |
| 2026-05-05 05:30 | -34.78202 | 146.88095 | 34212 ft | 446 kts | 225° |
| 2026-05-05 05:31 | -34.82879 | 146.83120 | 34209 ft | 446 kts | 225° |
| 2026-05-05 05:31 | -34.87547 | 146.78147 | 34215 ft | 446 kts | 225° |
| 2026-05-05 05:32 | -34.92209 | 146.73171 | 34211 ft | 445 kts | 225° |
| 2026-05-05 05:32 | -34.96864 | 146.68197 | 34211 ft | 445 kts | 225° |
| 2026-05-05 05:33 | -35.01509 | 146.63224 | 34216 ft | 444 kts | 225° |
| 2026-05-05 05:33 | -35.06148 | 146.58250 | 34212 ft | 444 kts | 225° |
| 2026-05-05 05:34 | -35.10782 | 146.53274 | 34212 ft | 443 kts | 225° |
| 2026-05-05 05:34 | -35.15381 | 146.48328 | 34210 ft | 443 kts | 225° |
| 2026-05-05 05:35 | -35.19999 | 146.43353 | 34212 ft | 442 kts | 225° |
| 2026-05-05 05:35 | -35.24611 | 146.38378 | 34212 ft | 442 kts | 225° |
| 2026-05-05 05:36 | -35.29217 | 146.33400 | 34211 ft | 441 kts | 225° |
| 2026-05-05 05:36 | -35.33813 | 146.28425 | 34214 ft | 441 kts | 225° |
| 2026-05-05 05:37 | -35.38402 | 146.23449 | 34207 ft | 440 kts | 225° |
| 2026-05-05 05:37 | -35.42993 | 146.18464 | 34206 ft | 440 kts | 225° |
| 2026-05-05 05:38 | -35.47572 | 146.13484 | 34206 ft | 440 kts | 225° |
| 2026-05-05 05:38 | -35.52117 | 146.08534 | 34209 ft | 440 kts | 225° |
| 2026-05-05 05:39 | -35.56695 | 146.03539 | 34206 ft | 440 kts | 225° |
| 2026-05-05 05:39 | -35.61265 | 145.98545 | 34206 ft | 440 kts | 225° |
| 2026-05-05 05:40 | -35.65828 | 145.93553 | 34207 ft | 439 kts | 225° |
| 2026-05-05 05:40 | -35.70386 | 145.88555 | 34204 ft | 439 kts | 225° |
| 2026-05-05 05:41 | -35.74940 | 145.83545 | 34188 ft | 439 kts | 226° |
| 2026-05-05 05:41 | -35.79490 | 145.78535 | 34200 ft | 439 kts | 226° |
| 2026-05-05 05:42 | -35.84040 | 145.73528 | 34201 ft | 439 kts | 226° |
| 2026-05-05 05:42 | -35.88594 | 145.68507 | 34199 ft | 439 kts | 225° |
| 2026-05-05 05:43 | -35.93142 | 145.63482 | 34200 ft | 439 kts | 225° |
| 2026-05-05 05:43 | -35.97694 | 145.58446 | 34211 ft | 439 kts | 224° |
| 2026-05-05 05:44 | -36.02245 | 145.53414 | 34200 ft | 439 kts | 224° |
| 2026-05-05 05:44 | -36.06791 | 145.48367 | 34199 ft | 439 kts | 224° |
| 2026-05-05 05:45 | -36.11306 | 145.43346 | 34197 ft | 439 kts | 224° |
| 2026-05-05 05:45 | -36.15675 | 145.38479 | 34194 ft | 440 kts | 224° |
| 2026-05-05 05:46 | -36.20225 | 145.33403 | 34196 ft | 440 kts | 224° |
| 2026-05-05 05:46 | -36.24771 | 145.28322 | 34196 ft | 442 kts | 224° |
| 2026-05-05 05:47 | -36.29330 | 145.23220 | 33918 ft | 436 kts | 224° |
| 2026-05-05 05:47 | -36.31573 | 145.20707 | 33249 ft | 432 kts | 223° |
| 2026-05-05 05:47 | -36.33788 | 145.18223 | 32789 ft | 425 kts | 223° |
| 2026-05-05 05:48 | -36.35963 | 145.15781 | 32230 ft | 420 kts | 223° |
| 2026-05-05 05:48 | -36.38151 | 145.13323 | 31367 ft | 428 kts | 223° |
| 2026-05-05 05:48 | -36.40366 | 145.10833 | 30442 ft | 429 kts | 222° |
| 2026-05-05 05:48 | -36.42582 | 145.08339 | 29403 ft | 431 kts | 222° |
| 2026-05-05 05:49 | -36.44810 | 145.05829 | 28377 ft | 434 kts | 222° |
| 2026-05-05 05:49 | -36.47029 | 145.03329 | 27396 ft | 437 kts | 222° |
| 2026-05-05 05:49 | -36.49302 | 145.00760 | 26646 ft | 434 kts | 222° |
| 2026-05-05 05:49 | -36.51501 | 144.98279 | 25923 ft | 432 kts | 221° |
| 2026-05-05 05:50 | -36.53718 | 144.95775 | 25210 ft | 429 kts | 221° |
| 2026-05-05 05:50 | -36.55927 | 144.93280 | 24493 ft | 428 kts | 221° |
| 2026-05-05 05:50 | -36.58122 | 144.90795 | 23786 ft | 426 kts | 221° |
| 2026-05-05 05:50 | -36.60316 | 144.88310 | 22971 ft | 424 kts | 221° |
| 2026-05-05 05:51 | -36.62489 | 144.85846 | 22255 ft | 421 kts | 221° |
| 2026-05-05 05:51 | -36.64642 | 144.83404 | 21584 ft | 417 kts | 221° |
| 2026-05-05 05:51 | -36.66778 | 144.80980 | 20921 ft | 413 kts | 221° |
| 2026-05-05 05:51 | -36.68891 | 144.78579 | 20265 ft | 410 kts | 221° |
| 2026-05-05 05:52 | -36.70981 | 144.76202 | 19701 ft | 405 kts | 222° |
| 2026-05-05 05:52 | -36.73061 | 144.73835 | 19013 ft | 404 kts | 222° |
| 2026-05-05 05:52 | -36.75127 | 144.71483 | 18358 ft | 396 kts | 222° |
| 2026-05-05 05:52 | -36.77122 | 144.69209 | 17692 ft | 381 kts | 222° |
| 2026-05-05 05:53 | -36.79179 | 144.67218 | 16867 ft | 371 kts | 208° |
| 2026-05-05 05:53 | -36.81579 | 144.66199 | 16221 ft | 361 kts | 189° |
| 2026-05-05 05:53 | -36.84050 | 144.66173 | 15652 ft | 351 kts | 174° |
| 2026-05-05 05:53 | -36.86405 | 144.66574 | 15099 ft | 341 kts | 173° |
| 2026-05-05 05:54 | -36.88728 | 144.67019 | 14549 ft | 334 kts | 173° |
| 2026-05-05 05:54 | -36.91024 | 144.67488 | 14016 ft | 336 kts | 173° |
| 2026-05-05 05:54 | -36.93339 | 144.67977 | 13410 ft | 338 kts | 172° |
| 2026-05-05 05:54 | -36.95662 | 144.68480 | 12849 ft | 339 kts | 172° |
| 2026-05-05 05:55 | -36.97992 | 144.68991 | 12342 ft | 339 kts | 172° |
| 2026-05-05 05:55 | -37.00292 | 144.69499 | 12098 ft | 331 kts | 172° |
| 2026-05-05 05:55 | -37.02528 | 144.69993 | 11897 ft | 323 kts | 172° |
| 2026-05-05 05:55 | -37.04733 | 144.70481 | 11705 ft | 320 kts | 172° |
| 2026-05-05 05:56 | -37.06924 | 144.70966 | 11539 ft | 320 kts | 172° |
| 2026-05-05 05:56 | -37.09118 | 144.71453 | 11359 ft | 319 kts | 172° |
| 2026-05-05 05:56 | -37.11300 | 144.71937 | 11194 ft | 318 kts | 172° |
| 2026-05-05 05:56 | -37.13451 | 144.72415 | 11029 ft | 310 kts | 172° |
| 2026-05-05 05:57 | -37.15521 | 144.72875 | 10881 ft | 293 kts | 172° |
| 2026-05-05 05:57 | -37.17480 | 144.73348 | 10715 ft | 283 kts | 171° |
| 2026-05-05 05:57 | -37.19392 | 144.73862 | 10466 ft | 279 kts | 171° |
| 2026-05-05 05:57 | -37.21275 | 144.74363 | 10274 ft | 272 kts | 171° |
| 2026-05-05 05:58 | -37.23077 | 144.74841 | 10132 ft | 264 kts | 171° |
| 2026-05-05 05:58 | -37.24855 | 144.75312 | 9957 ft | 258 kts | 171° |
| 2026-05-05 05:58 | -37.26605 | 144.75773 | 9650 ft | 256 kts | 171° |
| 2026-05-05 05:58 | -37.28338 | 144.76231 | 9429 ft | 252 kts | 171° |
| 2026-05-05 05:59 | -37.30030 | 144.76679 | 9301 ft | 244 kts | 172° |
| 2026-05-05 05:59 | -37.31657 | 144.77110 | 9181 ft | 234 kts | 172° |
| 2026-05-05 05:59 | -37.33233 | 144.77507 | 8949 ft | 230 kts | 175° |
| 2026-05-05 05:59 | -37.34833 | 144.77787 | 8392 ft | 236 kts | 175° |
| 2026-05-05 06:00 | -37.36504 | 144.78081 | 7792 ft | 249 kts | 175° |
| 2026-05-05 06:00 | -37.38262 | 144.78420 | 7146 ft | 260 kts | 173° |
| 2026-05-05 06:00 | -37.40066 | 144.78786 | 6498 ft | 265 kts | 174° |
| 2026-05-05 06:00 | -37.41873 | 144.79131 | 5884 ft | 267 kts | 173° |
| 2026-05-05 06:01 | -37.43690 | 144.79470 | 5452 ft | 261 kts | 174° |
| 2026-05-05 06:01 | -37.45459 | 144.79798 | 5035 ft | 250 kts | 174° |
| 2026-05-05 06:01 | -37.47114 | 144.80106 | 4623 ft | 232 kts | 174° |
| 2026-05-05 06:01 | -37.48658 | 144.80392 | 4270 ft | 215 kts | 174° |
| 2026-05-05 06:02 | -37.50077 | 144.80658 | 3977 ft | 197 kts | 174° |
| 2026-05-05 06:02 | -37.51334 | 144.80895 | 3703 ft | 169 kts | 175° |
| 2026-05-05 06:02 | -37.52422 | 144.81098 | 3416 ft | 151 kts | 175° |
| 2026-05-05 06:02 | -37.53459 | 144.81292 | 2917 ft | 150 kts | 175° |
| 2026-05-05 06:03 | -37.54470 | 144.81475 | 2690 ft | 145 kts | 175° |
| 2026-05-05 06:03 | -37.55133 | 144.81596 | 2547 ft | 145 kts | 175° |
| 2026-05-05 06:03 | -37.56132 | 144.81781 | 2343 ft | 145 kts | 175° |
| 2026-05-05 06:03 | -37.57124 | 144.81965 | 2136 ft | 144 kts | 174° |
| 2026-05-05 06:04 | -37.58033 | 144.82134 | 1937 ft | 142 kts | 175° |
| 2026-05-05 06:04 | -37.59013 | 144.82318 | 1750 ft | 142 kts | 176° |
| 2026-05-05 06:04 | -37.59992 | 144.82500 | 1567 ft | 142 kts | 174° |
| 2026-05-05 06:04 | -37.60965 | 144.82684 | 1373 ft | 141 kts | 175° |
| 2026-05-05 06:05 | -37.61947 | 144.82852 | 1162 ft | 143 kts | 175° |
| 2026-05-05 06:05 | -37.62935 | 144.83053 | 984 ft | 145 kts | 175° |
| 2026-05-05 06:05 | -37.63935 | 144.83234 | 768 ft | 144 kts | 175° |
| 2026-05-05 06:05 | -37.64895 | 144.83411 | 588 ft | 138 kts | 175° |
| 2026-05-05 06:06 | -37.65819 | 144.83586 | 423 ft | 128 kts | 174° |
| 2026-05-05 06:06 | -37.66534 | 144.83718 | 406 ft | 71 kts | 172° |
| 2026-05-05 06:06 | -37.66911 | 144.83796 | 392 ft | 47 kts | 163° |
| 2026-05-05 06:06 | -37.67161 | 144.83986 | 383 ft | 23 kts | 135° |
| 2026-05-05 06:07 | -37.67164 | 144.84045 | 382 ft | 3 kts | 10° |
| 2026-05-05 06:07 | -37.67107 | 144.84060 | 384 ft | 15 kts | 33° |
| 2026-05-05 06:07 | -37.67070 | 144.84207 | 386 ft | 20 kts | 82° |
| 2026-05-05 06:07 | -37.67051 | 144.84370 | 389 ft | 19 kts | 84° |
| 2026-05-05 06:08 | -37.67146 | 144.84461 | 388 ft | 21 kts | 175° |
| 2026-05-05 06:08 | -37.67207 | 144.84560 | 388 ft | 15 kts | 82° |
| 2026-05-05 06:08 | -37.67182 | 144.84641 | 390 ft | 7 kts | 22° |
| 2026-05-05 06:08 | -37.67163 | 144.84642 | 390 ft | 0 kts | 355° |
| 2026-05-05 06:09 | -37.67152 | 144.84640 | 391 ft | 2 kts | 352° |
| 2026-05-05 06:09 | -37.67145 | 144.84638 | 391 ft | 1 kts | 352° |
| 2026-05-05 06:09 | -37.67133 | 144.84636 | 391 ft | 2 kts | 352° |
| 2026-05-05 06:09 | -37.67123 | 144.84635 | 391 ft | 0 kts | 352° |